createdAt,value
2018-08-06T00:00:56.388Z,17.00
2018-08-06T00:05:59.416Z,16.90
2018-08-06T00:11:02.438Z,16.90
2018-08-06T00:16:05.628Z,16.70
2018-08-06T00:21:08.653Z,16.60
2018-08-06T00:26:11.692Z,16.40
2018-08-06T00:31:14.828Z,16.40
2018-08-06T00:36:17.877Z,16.30
2018-08-06T00:41:20.921Z,16.30
2018-08-06T00:46:23.985Z,16.20
2018-08-06T00:51:27.153Z,16.20
2018-08-06T00:56:30.745Z,16.00
2018-08-06T01:01:33.821Z,15.80
2018-08-06T01:06:36.849Z,15.60
2018-08-06T01:11:39.885Z,15.50
2018-08-06T01:16:42.921Z,15.40
2018-08-06T01:21:45.944Z,15.30
2018-08-06T01:26:49.016Z,15.30
2018-08-06T01:31:52.085Z,15.10
2018-08-06T01:36:55.112Z,15.00
2018-08-06T01:41:58.228Z,15.00
2018-08-06T01:47:01.261Z,15.00
2018-08-06T01:52:04.284Z,14.90
2018-08-06T01:57:07.317Z,14.80
2018-08-06T02:02:10.345Z,14.80
2018-08-06T02:07:13.380Z,14.90
2018-08-06T02:12:16.572Z,14.80
2018-08-06T02:17:19.596Z,14.70
2018-08-06T02:22:22.693Z,14.70
2018-08-06T02:27:25.752Z,14.60
2018-08-06T02:32:28.780Z,14.40
2018-08-06T02:37:31.804Z,14.20
2018-08-06T02:42:34.837Z,14.10
2018-08-06T02:52:42.425Z,14.10
2018-08-06T02:57:45.504Z,14.10
2018-08-06T03:02:48.743Z,14.10
2018-08-06T03:07:52.315Z,14.10
2018-08-06T03:12:55.385Z,14.00
2018-08-06T03:17:58.489Z,13.90
2018-08-06T03:23:01.521Z,13.90
2018-08-06T03:28:04.554Z,13.90
2018-08-06T03:33:07.605Z,13.70
2018-08-06T03:38:10.700Z,13.60
2018-08-06T03:43:13.773Z,13.50
2018-08-06T03:48:16.837Z,13.40
2018-08-06T03:53:19.886Z,13.50
2018-08-06T04:03:25.901Z,13.40
2018-08-06T04:08:28.937Z,13.40
2018-08-06T04:13:32.072Z,13.40
2018-08-06T04:18:35.133Z,13.40
2018-08-06T04:28:41.130Z,13.40
2018-08-06T04:33:44.161Z,13.50
2018-08-06T04:38:47.793Z,13.40
2018-08-06T04:43:50.976Z,13.50
2018-08-06T04:48:54.604Z,13.70
2018-08-06T04:53:57.704Z,13.90
2018-08-06T04:59:01.952Z,14.30
2018-08-06T05:04:05.306Z,14.70
2018-08-06T05:09:10.639Z,15.00
2018-08-06T05:14:15.712Z,15.30
2018-08-06T05:19:18.850Z,15.70
2018-08-06T05:24:21.840Z,16.00
2018-08-06T05:29:25.571Z,16.10
2018-08-06T05:34:28.581Z,16.20
2018-08-06T05:39:32.224Z,16.50
2018-08-06T05:44:35.295Z,16.90
2018-08-06T05:49:38.304Z,17.30
2018-08-06T05:54:41.401Z,17.70
2018-08-06T05:59:44.434Z,18.00
2018-08-06T06:04:47.488Z,18.20
2018-08-06T06:09:50.520Z,18.50
2018-08-06T06:14:53.604Z,18.90
2018-08-06T06:19:56.669Z,19.30
2018-08-06T06:30:02.641Z,20.00
2018-08-06T06:35:05.840Z,20.40
2018-08-06T06:40:08.889Z,20.70
2018-08-06T06:45:12.900Z,21.00
2018-08-06T06:50:16.034Z,21.30
2018-08-06T06:55:19.097Z,21.60
2018-08-06T07:00:22.160Z,22.00
2018-08-06T07:05:25.233Z,22.20
2018-08-06T07:10:28.306Z,22.50
2018-08-06T07:15:31.344Z,22.70
2018-08-06T07:20:34.460Z,22.90
2018-08-06T07:25:37.528Z,23.20
2018-08-06T07:30:40.603Z,23.40
2018-08-06T07:35:45.377Z,23.70
2018-08-06T07:40:48.437Z,23.90
2018-08-06T07:45:51.511Z,24.10
2018-08-06T07:50:54.536Z,24.30
2018-08-06T07:55:57.861Z,24.50
2018-08-06T08:01:00.925Z,24.70
2018-08-06T08:06:04.141Z,24.90
2018-08-06T08:11:08.149Z,25.00
2018-08-06T08:16:11.513Z,25.20
2018-08-06T08:21:14.544Z,25.40
2018-08-06T08:26:17.590Z,25.60
2018-08-06T08:31:20.680Z,25.70
2018-08-06T08:36:23.825Z,25.80
2018-08-06T08:41:26.861Z,26.00
2018-08-06T08:46:29.917Z,26.10
2018-08-06T08:51:32.989Z,26.20
2018-08-06T08:56:36.074Z,26.20
2018-08-06T09:01:39.112Z,26.30
2018-08-06T09:06:42.523Z,26.40
2018-08-06T09:11:45.541Z,26.50
2018-08-06T09:16:48.701Z,26.70
2018-08-06T09:26:55.066Z,26.80
2018-08-06T09:31:58.113Z,26.90
2018-08-06T09:37:01.140Z,27.00
2018-08-06T09:42:04.178Z,27.00
2018-08-06T09:47:07.216Z,27.10
2018-08-06T09:52:10.250Z,27.20
2018-08-06T09:57:13.962Z,27.30
2018-08-06T10:02:17.996Z,27.40
2018-08-06T10:07:21.064Z,27.50
2018-08-06T10:12:24.188Z,27.60
2018-08-06T10:17:27.310Z,27.70
2018-08-06T10:22:30.325Z,27.80
2018-08-06T10:27:33.433Z,27.90
2018-08-06T10:32:36.476Z,27.90
2018-08-06T10:37:39.617Z,28.00
2018-08-06T10:42:43.516Z,28.10
2018-08-06T10:47:46.832Z,28.20
2018-08-06T10:52:49.856Z,28.30
2018-08-06T10:57:52.995Z,28.40
2018-08-06T11:02:56.065Z,28.50
2018-08-06T11:07:59.181Z,28.60
2018-08-06T11:13:02.287Z,28.70
2018-08-06T11:18:05.669Z,28.70
2018-08-06T11:23:08.909Z,28.80
2018-08-06T11:28:11.953Z,28.90
2018-08-06T11:33:15.002Z,28.90
2018-08-06T11:38:18.137Z,29.00
2018-08-06T11:43:21.704Z,29.00
2018-08-06T11:48:24.742Z,29.10
2018-08-06T11:53:27.916Z,29.20
2018-08-06T11:58:30.952Z,29.20
2018-08-06T12:03:34.014Z,29.30
2018-08-06T12:08:37.324Z,29.30
2018-08-06T12:13:40.387Z,29.30
2018-08-06T12:18:43.816Z,29.40
2018-08-06T12:23:46.917Z,29.40
2018-08-06T12:28:49.953Z,29.50
2018-08-06T12:33:52.987Z,29.60
2018-08-06T12:39:11.248Z,29.70
2018-08-06T12:44:14.993Z,29.80
2018-08-06T12:49:18.032Z,29.80
2018-08-06T12:54:21.124Z,29.80
2018-08-06T12:59:24.164Z,29.90
2018-08-06T13:04:27.252Z,30.00
2018-08-06T13:09:30.305Z,30.10
2018-08-06T13:14:33.347Z,30.20
2018-08-06T13:19:36.468Z,30.30
2018-08-06T13:24:39.516Z,30.30
2018-08-06T13:29:42.588Z,30.40
2018-08-06T13:34:45.679Z,30.50
2018-08-06T13:39:48.724Z,30.50
2018-08-06T13:44:51.757Z,30.60
2018-08-06T13:49:54.792Z,30.70
2018-08-06T13:54:57.824Z,30.70
2018-08-06T14:00:00.882Z,30.70
2018-08-06T14:05:04.153Z,30.80
2018-08-06T14:10:08.244Z,30.80
2018-08-06T14:15:12.069Z,30.90
2018-08-06T14:20:16.701Z,31.00
2018-08-06T14:25:19.736Z,31.00
2018-08-06T14:30:22.841Z,30.90
2018-08-06T14:35:25.904Z,31.00
2018-08-06T14:40:28.936Z,31.00
2018-08-06T14:45:31.972Z,31.10
2018-08-06T14:50:35.061Z,31.10
2018-08-06T14:55:38.098Z,31.10
2018-08-06T15:00:41.141Z,31.10
2018-08-06T15:05:44.286Z,31.20
2018-08-06T15:10:47.404Z,31.30
2018-08-06T15:15:50.448Z,31.40
2018-08-06T15:20:53.665Z,31.40
2018-08-06T15:25:56.696Z,31.50
2018-08-06T15:30:59.733Z,31.60
2018-08-06T15:36:03.109Z,31.70
2018-08-06T15:41:06.816Z,31.80
2018-08-06T15:46:09.909Z,31.90
2018-08-06T15:51:12.941Z,31.90
2018-08-06T15:56:16.113Z,31.80
2018-08-06T16:01:19.181Z,31.80
2018-08-06T16:06:22.517Z,31.80
2018-08-06T16:11:25.566Z,31.90
2018-08-06T16:16:28.592Z,32.00
2018-08-06T16:21:31.725Z,32.10
2018-08-06T16:26:34.789Z,32.10
2018-08-06T16:31:37.861Z,32.00
2018-08-06T16:36:40.909Z,31.90
2018-08-06T16:41:44.150Z,32.00
2018-08-06T16:46:47.206Z,31.90
2018-08-06T16:51:50.212Z,31.90
2018-08-06T16:56:53.281Z,31.90
2018-08-06T17:01:56.337Z,31.90
2018-08-06T17:06:59.372Z,31.90
